createdAt,value
2019-06-10T00:01:44.320Z,4.90
2019-06-10T00:07:46.497Z,5.35
2019-06-10T00:13:50.661Z,4.95
2019-06-10T00:19:52.780Z,4.83
2019-06-10T00:25:55.315Z,5.17
2019-06-10T00:31:58.505Z,5.83
2019-06-10T00:38:03.387Z,5.67
2019-06-10T00:44:05.626Z,5.42
2019-06-10T00:50:13.087Z,5.53
2019-06-10T00:56:14.465Z,5.87
2019-06-10T01:02:16.988Z,5.42
2019-06-10T01:08:21.382Z,5.95
2019-06-10T01:14:23.350Z,6.55
2019-06-10T01:20:25.675Z,6.25
2019-06-10T01:26:30.861Z,5.42
2019-06-10T01:32:33.656Z,5.58
2019-06-10T01:38:36.096Z,6.28
2019-06-10T01:44:38.274Z,6.55
2019-06-10T01:50:40.702Z,6.08
2019-06-10T01:56:43.048Z,7.62
2019-06-10T02:02:45.377Z,8.58
2019-06-10T02:08:47.673Z,8.20
2019-06-10T02:14:50.900Z,7.55
2019-06-10T02:20:53.520Z,6.00
2019-06-10T02:26:55.840Z,5.83
2019-06-10T02:32:58.287Z,5.20
2019-06-10T02:39:04.302Z,6.03
2019-06-10T02:45:06.344Z,5.87
2019-06-10T02:51:08.690Z,6.33
2019-06-10T02:57:13.941Z,5.75
2019-06-10T03:03:19.863Z,5.15
2019-06-10T03:09:20.492Z,5.90
2019-06-10T03:15:25.155Z,4.53
2019-06-10T03:21:28.431Z,5.20
2019-06-10T03:27:32.809Z,5.17
2019-06-10T03:33:40.685Z,5.22
2019-06-10T03:39:38.949Z,6.10
2019-06-10T03:45:42.574Z,4.70
2019-06-10T03:51:45.031Z,5.70
2019-06-10T03:57:47.261Z,5.30
2019-06-10T04:03:49.522Z,5.25
2019-06-10T04:09:52.604Z,5.55
2019-06-10T04:15:56.614Z,4.78
2019-06-10T04:21:59.297Z,5.10
2019-06-10T04:28:03.165Z,4.70
2019-06-10T04:34:05.377Z,5.03
2019-06-10T04:40:07.988Z,5.60
2019-06-10T04:46:12.436Z,4.83
2019-06-10T04:52:14.402Z,5.20
2019-06-10T04:58:16.703Z,4.50
2019-06-10T05:04:18.973Z,4.17
2019-06-10T05:10:23.699Z,4.53
2019-06-10T05:16:29.054Z,4.08
2019-06-10T05:22:30.588Z,4.30
2019-06-10T05:28:34.334Z,4.15
2019-06-10T05:34:36.797Z,5.30
2019-06-10T05:40:39.153Z,3.92
2019-06-10T05:46:43.541Z,4.00
2019-06-10T05:52:45.867Z,3.95
2019-06-10T05:58:48.326Z,4.22
2019-06-10T06:04:52.922Z,4.20
2019-06-10T06:10:54.782Z,4.20
2019-06-10T06:16:56.985Z,3.50
2019-06-10T06:22:59.364Z,3.42
2019-06-10T06:29:02.216Z,4.47
2019-06-10T06:35:05.445Z,4.92
2019-06-10T06:41:07.878Z,3.60
2019-06-10T06:47:10.413Z,4.00
2019-06-10T06:53:27.788Z,4.95
2019-06-10T06:59:17.009Z,5.20
2019-06-10T07:05:19.786Z,5.12
2019-06-10T07:11:24.371Z,4.22
2019-06-10T07:17:26.783Z,3.87
2019-06-10T07:23:29.189Z,4.62
2019-06-10T07:29:34.125Z,4.75
2019-06-10T07:35:37.258Z,4.87
2019-06-10T07:41:47.325Z,4.55
2019-06-10T07:47:47.153Z,5.08
2019-06-10T07:53:52.292Z,4.08
2019-06-10T07:59:53.799Z,3.92
2019-06-10T08:05:56.060Z,4.20
2019-06-10T08:11:58.423Z,3.95
2019-06-10T08:18:04.120Z,4.15
2019-06-10T08:24:04.938Z,4.28
2019-06-10T08:30:21.128Z,3.62
2019-06-10T08:36:13.526Z,4.83
2019-06-10T08:42:16.158Z,3.60
2019-06-10T08:48:18.483Z,4.00
2019-06-10T08:54:23.275Z,3.75
2019-06-10T09:00:26.605Z,4.55
2019-06-10T09:06:28.995Z,4.17
2019-06-10T09:12:36.371Z,4.53
2019-06-10T09:18:35.280Z,4.72
2019-06-10T09:24:37.624Z,3.90
2019-06-10T09:30:43.598Z,4.40
2019-06-10T09:36:49.112Z,3.92
2019-06-10T09:42:52.023Z,3.80
2019-06-10T09:48:56.054Z,4.12
2019-06-10T09:54:58.792Z,4.12
2019-06-10T10:01:03.418Z,4.47
2019-06-10T10:07:07.491Z,4.10
2019-06-10T10:13:10.222Z,3.95
2019-06-10T10:19:13.126Z,4.20
2019-06-10T10:25:15.605Z,4.12
2019-06-10T10:31:18.003Z,4.03
2019-06-10T10:37:22.746Z,4.97
2019-06-10T10:43:32.718Z,4.45
2019-06-10T10:49:28.900Z,4.95
2019-06-10T10:55:33.372Z,4.65
2019-06-10T11:01:35.500Z,5.47
2019-06-10T11:07:37.960Z,4.47
2019-06-10T11:13:43.285Z,4.58
2019-06-10T11:19:45.530Z,4.42
2019-06-10T11:25:47.917Z,4.60
2019-06-10T11:31:50.498Z,4.85
2019-06-10T11:37:56.420Z,4.72
2019-06-10T11:44:00.605Z,4.37
2019-06-10T11:50:03.620Z,5.33
2019-06-10T11:56:05.849Z,5.92
2019-06-10T12:02:08.671Z,4.05
2019-06-10T12:08:13.039Z,5.28
2019-06-10T12:14:15.195Z,4.22
2019-06-10T12:20:18.047Z,4.97
2019-06-10T12:26:22.513Z,4.25
2019-06-10T12:32:24.489Z,4.60
2019-06-10T12:38:26.799Z,4.53
2019-06-10T12:44:29.712Z,4.45
2019-06-10T12:50:32.007Z,4.03
2019-06-10T12:56:34.147Z,4.60
2019-06-10T13:02:36.920Z,4.33
2019-06-10T13:08:42.849Z,4.83
2019-06-10T13:14:44.781Z,4.00
2019-06-10T13:20:47.676Z,5.00
2019-06-10T13:26:52.251Z,4.42
2019-06-10T13:32:54.266Z,4.53
2019-06-10T13:38:57.649Z,4.65
2019-06-10T13:45:04.923Z,4.40
2019-06-10T13:51:09.099Z,5.05
2019-06-10T13:57:13.626Z,4.67
2019-06-10T14:03:16.331Z,5.10
2019-06-10T14:09:18.567Z,5.58
2019-06-10T14:15:22.614Z,5.22
2019-06-10T14:21:24.932Z,4.67
2019-06-10T14:27:27.249Z,5.08
2019-06-10T14:33:29.663Z,4.72
2019-06-10T14:39:32.927Z,6.00
2019-06-10T14:45:37.599Z,6.00
2019-06-10T14:51:42.932Z,5.83
2019-06-10T14:57:44.283Z,5.80
2019-06-10T15:03:46.875Z,5.87
2019-06-10T15:09:49.188Z,5.40
2019-06-10T15:15:53.210Z,6.12
2019-06-10T15:21:55.762Z,5.62
2019-06-10T15:27:58.048Z,5.83
2019-06-10T15:34:02.728Z,6.35
2019-06-10T15:40:05.406Z,5.55
2019-06-10T15:46:07.792Z,5.87
2019-06-10T15:52:10.963Z,6.12
2019-06-10T15:58:15.973Z,6.17
2019-06-10T16:04:19.315Z,5.90
2019-06-10T16:10:27.455Z,5.50
2019-06-10T16:16:26.810Z,5.30
2019-06-10T16:22:29.209Z,5.87
2019-06-10T16:28:32.883Z,5.55
2019-06-10T16:34:35.453Z,6.05
2019-06-10T16:40:37.870Z,6.00
2019-06-10T16:46:42.933Z,5.65
2019-06-10T16:52:44.673Z,6.90
2019-06-10T16:58:47.029Z,6.60
2019-06-10T17:04:52.509Z,6.83
2019-06-10T17:10:53.818Z,6.35
2019-06-10T17:16:56.126Z,5.92
2019-06-10T17:23:00.294Z,6.80
2019-06-10T17:29:02.930Z,7.22
2019-06-10T17:35:05.497Z,6.78
2019-06-10T17:41:07.869Z,7.75
2019-06-10T17:47:10.304Z,7.10
2019-06-10T17:53:13.866Z,6.80
2019-06-10T17:59:17.030Z,7.65
2019-06-10T18:05:24.144Z,7.72
2019-06-10T18:11:28.059Z,8.38
2019-06-10T18:17:31.214Z,7.62
2019-06-10T18:23:36.856Z,8.83
2019-06-10T18:29:39.239Z,7.92
2019-06-10T18:35:47.446Z,6.78
2019-06-10T18:41:52.740Z,8.60
2019-06-10T18:47:58.517Z,8.48
2019-06-10T18:54:00.931Z,8.53
2019-06-10T19:00:11.110Z,7.20
2019-06-10T19:06:09.696Z,7.83
2019-06-10T19:12:13.383Z,8.28
2019-06-10T19:18:15.755Z,7.78
2019-06-10T19:24:18.086Z,8.10
2019-06-10T19:30:23.104Z,8.60
2019-06-10T19:36:26.264Z,8.30
2019-06-10T19:42:29.044Z,8.25
2019-06-10T19:48:55.428Z,7.40
2019-06-10T19:54:46.953Z,7.72
2019-06-10T20:00:54.457Z,7.15
2019-06-10T20:06:56.536Z,8.18
2019-06-10T20:12:58.848Z,8.40
2019-06-10T20:19:03.057Z,7.92
2019-06-10T20:25:05.524Z,8.85
2019-06-10T20:31:07.882Z,7.30
2019-06-10T20:37:10.319Z,8.23
2019-06-10T20:43:13.237Z,9.33
2019-06-10T20:49:16.823Z,8.00
2019-06-10T20:55:19.180Z,7.17
2019-06-10T21:01:25.303Z,7.17
2019-06-10T21:07:26.317Z,7.72
2019-06-10T21:13:28.824Z,9.10
2019-06-10T21:19:32.980Z,8.05
2019-06-10T21:25:35.035Z,8.33
2019-06-10T21:31:37.582Z,7.55
2019-06-10T21:37:42.538Z,9.00
2019-06-10T21:43:49.414Z,7.90
2019-06-10T21:49:48.422Z,7.45
2019-06-10T21:55:53.503Z,6.25
2019-06-10T22:01:54.992Z,7.40
2019-06-10T22:07:57.271Z,7.33
2019-06-10T22:13:59.446Z,6.53
2019-06-10T22:20:01.939Z,7.90
2019-06-10T22:26:04.306Z,8.18
2019-06-10T22:32:06.543Z,6.87
2019-06-10T22:38:08.730Z,6.00
2019-06-10T22:44:12.692Z,6.60
2019-06-10T22:50:15.671Z,7.55
2019-06-10T22:56:18.453Z,7.97
2019-06-10T23:02:22.795Z,7.28
2019-06-10T23:08:24.614Z,7.45
2019-06-10T23:14:26.972Z,6.65
2019-06-10T23:20:29.144Z,6.58
2019-06-10T23:26:33.241Z,6.72
2019-06-10T23:32:36.437Z,7.62
2019-06-10T23:38:38.720Z,7.62
2019-06-10T23:44:40.999Z,6.65
2019-06-10T23:50:43.891Z,6.53
2019-06-10T23:56:46.244Z,6.55
